Buoy 32822

sailwx.info

Track history (hours):
 
Tides and Currents Weather Stations Pressure Air Temp Water Temp Dewpoint Dewpoint Depression Visibility Wind Speed Wind Dir Waves Ship Positions

Drifting buoy 32822

Last reported at 2018-Jun-22 00:30 UTC. Time now 2018-Jun-22 01:38 UTC.
Position S 28°59' W 102°24'.

Water temperature 20.8 ° C

Date/timePositionNaut miles runAvg speedWind from/ knotsBaromVisibWave heightAir tempDewpointWater temp
2018-Jun-22 00:30S 28°59' W 102°24'0 0.0 20.8
2018-Jun-22 00:15S 28°59' W 102°24'0 0.0 20.8
2018-Jun-21 23:15S 28°59' W 102°24'0 0.0 20.8
2018-Jun-21 22:45S 28°59' W 102°24'0 0.0 20.8
2018-Jun-21 22:30S 28°59' W 102°24'1 0.1 20.8
2018-Jun-21 17:00S 28°59' W 102°23'1 1.0 20.9
2018-Jun-21 16:30S 28°59' W 102°23'1 3.2 20.9
2018-Jun-21 16:15S 29°00' W 102°22'0 0.0 20.9
2018-Jun-21 14:45S 29°00' W 102°22'0 0.0 20.9
2018-Jun-21 14:30S 29°00' W 102°22'1 2.1 20.9
2018-Jun-21 14:00S 29°00' W 102°23'0 0.0 20.9
2018-Jun-21 13:45S 29°00' W 102°23'1 0.7 20.9
2018-Jun-21 13:00S 29°00' W 102°23'0 0.0 20.9
2018-Jun-21 12:45S 29°00' W 102°23'0 0.0 20.9
2018-Jun-21 12:15S 29°00' W 102°23'2 7.2 20.9
2018-Jun-21 12:00S 28°58' W 102°23'0 0.0 20.9
2018-Jun-21 11:45S 28°58' W 102°23'2 1.2 20.9
2018-Jun-21 10:15S 29°00' W 102°23'3 1.8 20.9
2018-Jun-21 08:30S 29°02' W 102°20'0 0.0 20.9
2018-Jun-21 05:45S 29°02' W 102°20'0 0.0 20.9
2018-Jun-21 05:15S 29°02' W 102°20'0 0.0 20.8
2018-Jun-21 05:00S 29°02' W 102°20'1 0.7 20.8
2018-Jun-21 04:15S 29°02' W 102°21'1 2.1 20.8
2018-Jun-21 04:00S 29°02' W 102°22'1 2.1 20.8
2018-Jun-21 03:30S 29°02' W 102°20'0 0.0 20.8
2018-Jun-21 03:15S 29°02' W 102°20'0 0.0 20.8
2018-Jun-21 03:00S 29°02' W 102°20'1 2.4 20.8
2018-Jun-21 02:45S 29°03' W 102°20'0 0.0 20.8
2018-Jun-21 02:30S 29°03' W 102°20'0 0.0 20.8
2018-Jun-21 01:30S 29°03' W 102°20'0 0.0 20.8
2018-Jun-21 01:00S 29°03' W 102°20'1 4.2 20.8
2018-Jun-21 00:45S 29°03' W 102°19'0 0.0 20.8
2018-Jun-21 00:30S 29°03' W 102°19'1 1.0 20.8
2018-Jun-21 00:00S 29°03' W 102°20'1 2.4 20.9
2018-Jun-20 23:45S 29°04' W 102°20'0 0.0 20.9
2018-Jun-20 23:00S 29°04' W 102°20'2 8.3 20.9
2018-Jun-20 22:45S 29°05' W 102°19'0 0.0 20.9
2018-Jun-20 17:30S 29°05' W 102°19'0 0.0 21.0
2018-Jun-20 17:15S 29°05' W 102°19'1 1.0 21.0
2018-Jun-20 16:45S 29°05' W 102°18'0 0.0 21.0
2018-Jun-20 16:30S 29°05' W 102°18'1 0.7 20.9
2018-Jun-20 15:45S 29°05' W 102°17'0 0.0 20.9
2018-Jun-20 15:00S 29°05' W 102°17'0 0.0 20.9
2018-Jun-20 14:45S 29°05' W 102°17'1 2.1 20.9
2018-Jun-20 14:30S 29°05' W 102°17'0 0.0 20.9
2018-Jun-20 14:15S 29°05' W 102°17'0 0.0 20.9
2018-Jun-20 14:00S 29°05' W 102°17'1 0.8 20.9
2018-Jun-20 13:00S 29°06' W 102°17'0 0.0 20.9
2018-Jun-20 12:45S 29°06' W 102°17'0 0.0 20.9
2018-Jun-20 12:30S 29°06' W 102°17'2 4.8 20.9
2018-Jun-20 12:00S 29°08' W 102°16'0 0.0 20.9
2018-Jun-20 10:30S 29°08' W 102°16'0 0.0 20.8
2018-Jun-20 10:15S 29°08' W 102°16'0 0.0 20.8
2018-Jun-20 08:45S 29°08' W 102°16'0 0.0 20.8
2018-Jun-20 06:00S 29°08' W 102°16'0 0.0 20.8
2018-Jun-20 05:30S 29°08' W 102°16'0 0.0 20.8
2018-Jun-20 05:15S 29°08' W 102°16'1 0.8 20.8
2018-Jun-20 04:30S 29°08' W 102°16'1 2.1 20.8
2018-Jun-20 04:15S 29°08' W 102°15'1 1.2 20.8
2018-Jun-20 03:45S 29°08' W 102°15'1 3.2 20.8
2018-Jun-20 03:30S 29°08' W 102°16'0 0.0 20.8
2018-Jun-20 03:15S 29°08' W 102°16'1 4.2 20.8
2018-Jun-20 03:00S 29°08' W 102°14'0 0.0 20.8
2018-Jun-20 02:45S 29°08' W 102°14'0 0.0 20.8
2018-Jun-20 02:00S 29°08' W 102°14'1 2.1 20.8
2018-Jun-20 01:45S 29°08' W 102°15'0 0.0 20.8
2018-Jun-20 01:30S 29°08' W 102°15'0 0.0 20.8
2018-Jun-20 01:15S 29°08' W 102°15'4 8.8 20.8
2018-Jun-20 00:45S 29°11' W 102°11'0 0.0 20.8
2018-Jun-20 00:30S 29°11' W 102°11'0 0.0 20.8
2018-Jun-20 00:15S 29°11' W 102°11'0 0.0 20.8
2018-Jun-19 23:15S 29°11' W 102°11'0 0.0 20.8
2018-Jun-19 23:00S 29°11' W 102°11'0 0.0 20.8
2018-Jun-19 22:45S 29°11' W 102°11'0 0.0 20.8
2018-Jun-19 21:30S 29°11' W 102°11'0 0.0 20.9
2018-Jun-19 17:00S 29°11' W 102°11'1 0.8 21.1
2018-Jun-19 16:15S 29°11' W 102°11'0 0.0 21.1
2018-Jun-19 16:00S 29°11' W 102°11'1 1.6 21.1
2018-Jun-19 15:30S 29°12' W 102°10'1 2.1 21.1
2018-Jun-19 15:15S 29°12' W 102°11'0 0.0 21.1
2018-Jun-19 15:00S 29°12' W 102°11'1 4.8 21.1
2018-Jun-19 14:45S 29°13' W 102°10'1 0.3 21.1
2018-Jun-19 13:15S 29°13' W 102°10'2 7.2 21.1
2018-Jun-19 13:00S 29°14' W 102°10'1 0.7 21.1
2018-Jun-19 11:30S 29°14' W 102°09'0 0.0 21.2
2018-Jun-19 10:45S 29°14' W 102°09'0 0.0 21.2
2018-Jun-19 10:30S 29°14' W 102°09'0 0.0 21.2
2018-Jun-19 09:00S 29°14' W 102°09'1 0.4 21.2
2018-Jun-19 05:45S 29°16' W 102°09'1 0.5 21.2
2018-Jun-19 04:45S 29°16' W 102°08'0 0.0 21.2
2018-Jun-19 04:15S 29°16' W 102°08'0 0.0 21.3
2018-Jun-19 04:00S 29°16' W 102°08'1 3.2 21.3
2018-Jun-19 03:45S 29°16' W 102°08'1 4.8 21.3
2018-Jun-19 03:30S 29°17' W 102°07'1 4.2 21.3
2018-Jun-19 03:15S 29°17' W 102°08'1 2.4 21.3
2018-Jun-19 03:00S 29°16' W 102°08'1 1.2 21.3
2018-Jun-19 02:00S 29°17' W 102°07'0 0.0 21.2
2018-Jun-19 01:45S 29°17' W 102°07'0 0.0 21.3
2018-Jun-19 01:00S 29°17' W 102°07'0 0.0 21.3
2018-Jun-19 00:45S 29°17' W 102°07'6 3.7 21.3
2018-Jun-18 23:15S 29°22' W 102°05'416.9 21.3
2018-Jun-18 23:00S 29°18' W 102°05'4 3.4 21.3
2018-Jun-18 21:45S 29°22' W 102°05'0 0.0 21.3
2018-Jun-18 21:30S 29°22' W 102°05'1 0.1 21.3
2018-Jun-18 17:30S 29°23' W 102°05'0 0.0 21.3
2018-Jun-18 17:15S 29°23' W 102°05'0 0.0 21.3
2018-Jun-18 15:45S 29°23' W 102°05'1 2.4 21.3
2018-Jun-18 15:30S 29°23' W 102°05'0 0.0 21.3
2018-Jun-18 15:15S 29°23' W 102°05'0 0.0 21.3
2018-Jun-18 15:00S 29°23' W 102°05'1 2.1 21.3
2018-Jun-18 14:45S 29°23' W 102°04'1 0.6 21.3
2018-Jun-18 13:45S 29°24' W 102°04'0 0.0 21.3
2018-Jun-18 13:30S 29°24' W 102°04'0 0.0 21.3
2018-Jun-18 13:15S 29°24' W 102°04'1 0.8 21.3
2018-Jun-18 11:45S 29°25' W 102°04'1 0.8 21.3
2018-Jun-18 11:00S 29°26' W 102°04'0 0.0 21.3
2018-Jun-18 10:45S 29°26' W 102°04'3 0.6 21.3
2018-Jun-18 06:00S 29°28' W 102°06'0 0.0 21.3
2018-Jun-18 05:15S 29°28' W 102°06'1 2.1 21.3
2018-Jun-18 05:00S 29°28' W 102°05'1 1.0 21.3
2018-Jun-18 04:30S 29°28' W 102°06'0 0.0 21.3
2018-Jun-18 04:15S 29°28' W 102°06'1 1.0 21.3
2018-Jun-18 03:45S 29°28' W 102°07'1 2.1 21.3
2018-Jun-18 03:30S 29°28' W 102°06'0 0.0 21.3
2018-Jun-18 03:15S 29°28' W 102°06'0 0.0 21.3
2018-Jun-18 02:15S 29°28' W 102°06'0 0.0 21.3
2018-Jun-18 02:00S 29°28' W 102°06'1 1.0 21.3
2018-Jun-18 01:30S 29°28' W 102°07'0 0.0 21.3
2018-Jun-18 01:15S 29°28' W 102°07'1 1.6 21.3
2018-Jun-18 00:45S 29°29' W 102°06'0 0.0 21.3
2018-Jun-18 00:30S 29°29' W 102°06'1 1.1 21.3
2018-Jun-17 23:45S 29°28' W 102°05'0 0.0 21.3
2018-Jun-17 23:30S 29°28' W 102°05'0 0.0 21.3
2018-Jun-17 21:45S 29°28' W 102°05'2 0.5 21.3
2018-Jun-17 16:45S 29°31' W 102°05'1 1.0 21.2
2018-Jun-17 16:15S 29°31' W 102°05'0 0.0 21.2
2018-Jun-17 16:00S 29°31' W 102°05'1 1.6 21.3
2018-Jun-17 15:30S 29°31' W 102°05'0 0.0 21.2
2018-Jun-17 15:15S 29°31' W 102°05'0 0.0 21.2
2018-Jun-17 15:00S 29°31' W 102°05'1 1.6 21.2
2018-Jun-17 14:15S 29°32' W 102°05'1 2.4 21.2
2018-Jun-17 14:00S 29°32' W 102°05'1 2.4 21.2
2018-Jun-17 13:45S 29°32' W 102°05'0 0.0 21.2
2018-Jun-17 13:30S 29°32' W 102°05'1 0.6 21.2
2018-Jun-17 12:30S 29°33' W 102°05'1 4.8 21.2
2018-Jun-17 12:15S 29°34' W 102°06'0 0.0 21.3
2018-Jun-17 11:15S 29°34' W 102°06'0 0.0 21.4
2018-Jun-17 11:00S 29°34' W 102°06'2 1.4 21.4
2018-Jun-17 09:30S 29°34' W 102°08'0 0.0 21.4
2018-Jun-17 09:15S 29°34' W 102°08'0 0.0 21.4
2018-Jun-17 05:30S 29°34' W 102°08'0 0.0 21.2
2018-Jun-17 05:00S 29°34' W 102°08'0 0.0 21.2
2018-Jun-17 04:45S 29°34' W 102°08'0 0.0 21.2
2018-Jun-17 04:00S 29°34' W 102°08'0 0.0 21.2
2018-Jun-17 03:45S 29°34' W 102°08'0 0.0 21.2
2018-Jun-17 03:15S 29°34' W 102°08'1 2.4 21.2
2018-Jun-17 03:00S 29°33' W 102°08'0 0.0 21.3
2018-Jun-17 02:45S 29°33' W 102°08'1 3.2 21.3
2018-Jun-17 02:30S 29°34' W 102°09'1 3.2 21.3
2018-Jun-17 02:15S 29°33' W 102°10'0 0.0 21.3
2018-Jun-17 02:00S 29°33' W 102°10'0 0.0 21.3
2018-Jun-17 01:45S 29°33' W 102°10'1 0.8 21.3
2018-Jun-17 01:00S 29°34' W 102°10'1 2.1 21.3
2018-Jun-17 00:45S 29°34' W 102°09'1 1.0 21.3
2018-Jun-17 00:15S 29°34' W 102°10'0 0.0 21.4
2018-Jun-17 00:00S 29°34' W 102°10'0 0.0 21.4
2018-Jun-16 23:45S 29°34' W 102°10'0 0.0 21.3
2018-Jun-16 23:30S 29°34' W 102°10'1 0.6 21.4
2018-Jun-16 22:30S 29°34' W 102°10'0 0.0 21.4
2018-Jun-16 22:00S 29°34' W 102°10'2 0.4 21.4
2018-Jun-16 17:15S 29°35' W 102°11'0 0.0 21.4
2018-Jun-16 17:00S 29°35' W 102°11'0 0.0 21.4
2018-Jun-16 16:30S 29°35' W 102°11'0 0.0 21.4
2018-Jun-16 16:15S 29°35' W 102°11'1 0.7 21.4
2018-Jun-16 14:45S 29°35' W 102°13'1 1.0 21.5
2018-Jun-16 14:15S 29°35' W 102°12'1 2.1 21.4
2018-Jun-16 14:00S 29°35' W 102°13'0 0.0 21.5
2018-Jun-16 13:45S 29°35' W 102°13'1 1.0 21.5
2018-Jun-16 13:15S 29°35' W 102°13'0 0.0 21.5
2018-Jun-16 13:00S 29°35' W 102°13'0 0.0 21.5
2018-Jun-16 12:45S 29°35' W 102°13'0 0.0 21.5
2018-Jun-16 12:30S 29°35' W 102°13'0 0.0 21.5
2018-Jun-16 11:30S 29°35' W 102°13'1 2.1 21.5
2018-Jun-16 11:15S 29°35' W 102°14'0 0.0 21.5
2018-Jun-16 11:00S 29°35' W 102°14'1 0.4 21.5
2018-Jun-16 09:45S 29°35' W 102°14'0 0.0 21.5
2018-Jun-16 09:30S 29°35' W 102°14'1 0.3 21.5
2018-Jun-16 05:45S 29°35' W 102°16'0 0.0 21.5
2018-Jun-16 05:15S 29°35' W 102°16'0 0.0 21.5
2018-Jun-16 05:00S 29°35' W 102°16'1 0.7 21.5
2018-Jun-16 04:15S 29°35' W 102°16'0 0.0 21.5
2018-Jun-16 04:00S 29°35' W 102°16'0 0.0 21.5
2018-Jun-16 03:30S 29°35' W 102°16'1 1.0 21.5
2018-Jun-16 03:00S 29°35' W 102°17'1 1.0 21.5
2018-Jun-16 02:30S 29°35' W 102°17'0 0.0 21.5
2018-Jun-16 01:30S 29°35' W 102°17'0 0.0 21.5
2018-Jun-16 01:15S 29°35' W 102°17'0 0.0 21.6
2018-Jun-16 00:45S 29°35' W 102°17'1 0.7 21.6
2018-Jun-16 00:00S 29°35' W 102°18'0 0.0 21.6
2018-Jun-15 23:45S 29°35' W 102°18'0 0.0 21.6
2018-Jun-15 23:15S 29°35' W 102°18'0 0.0 21.6
2018-Jun-15 23:00S 29°35' W 102°18'1 1.1 21.6
2018-Jun-15 22:15S 29°34' W 102°19'1 2.4 21.6
2018-Jun-15 22:00S 29°35' W 102°19'2 0.5 21.6
2018-Jun-15 17:30S 29°34' W 102°21'0 0.0 21.6
2018-Jun-15 16:45S 29°34' W 102°21'1 0.8 21.6
2018-Jun-15 15:45S 29°33' W 102°22'1 1.0 21.6
2018-Jun-15 15:15S 29°33' W 102°21'0 0.0 21.6
2018-Jun-15 15:00S 29°33' W 102°21'1 2.1 21.6
2018-Jun-15 14:45S 29°33' W 102°22'0 0.0 21.6
2018-Jun-15 14:15S 29°33' W 102°22'0 0.0 21.6
2018-Jun-15 14:00S 29°33' W 102°22'0 0.0 21.6
2018-Jun-15 13:45S 29°33' W 102°22'0 0.0 21.6
2018-Jun-15 13:30S 29°33' W 102°22'0 0.0 21.6
2018-Jun-15 13:00S 29°33' W 102°22'1 0.8 21.6
2018-Jun-15 12:00S 29°32' W 102°22'0 0.0 21.6
2018-Jun-15 11:45S 29°32' W 102°22'0 0.0 21.6
2018-Jun-15 11:30S 29°32' W 102°22'0 0.0 21.6
2018-Jun-15 11:15S 29°32' W 102°22'1 0.3 21.6
2018-Jun-15 09:45S 29°32' W 102°23'1 0.3 21.6
2018-Jun-15 06:15S 29°32' W 102°24'0 0.0 21.6
2018-Jun-15 06:00S 29°32' W 102°24'0 0.0 21.6
2018-Jun-15 05:30S 29°32' W 102°24'0 0.0 21.6
2018-Jun-15 04:30S 29°32' W 102°24'1 2.1 21.6
2018-Jun-15 04:15S 29°32' W 102°25'0 0.0 21.6
2018-Jun-15 04:00S 29°32' W 102°25'0 0.0 21.6
2018-Jun-15 03:45S 29°32' W 102°25'1 2.1 21.6
2018-Jun-15 03:30S 29°32' W 102°25'0 0.0 21.6
2018-Jun-15 02:45S 29°32' W 102°25'1 2.1 21.6
2018-Jun-15 02:30S 29°32' W 102°26'0 0.0 21.6
2018-Jun-15 02:00S 29°32' W 102°26'0 0.0 21.6
2018-Jun-15 01:45S 29°32' W 102°26'1 1.2 21.6
2018-Jun-15 01:15S 29°32' W 102°26'1 0.5 21.6
2018-Jun-15 00:15S 29°32' W 102°26'0 0.0 21.6
2018-Jun-15 00:00S 29°32' W 102°26'1 2.4 21.6
2018-Jun-14 23:45S 29°31' W 102°26'0 0.0 21.6
2018-Jun-14 23:30S 29°31' W 102°26'3 3.2 21.6
2018-Jun-14 22:30S 29°29' W 102°29'311.0 21.6
2018-Jun-14 22:15S 29°31' W 102°27'3 0.6 21.7
2018-Jun-14 17:15S 29°29' W 102°29'0 0.0 21.6
2018-Jun-14 17:00S 29°29' W 102°29'1 0.8 21.6
2018-Jun-14 16:15S 29°30' W 102°29'1 2.4 21.6
2018-Jun-14 16:00S 29°29' W 102°29'0 0.0 21.6
2018-Jun-14 15:45S 29°29' W 102°29'0 0.0 21.6
2018-Jun-14 15:30S 29°29' W 102°29'0 0.0 21.6
2018-Jun-14 15:15S 29°29' W 102°29'0 0.0 21.6
2018-Jun-14 14:15S 29°29' W 102°29'0 0.0 21.5
2018-Jun-14 14:00S 29°29' W 102°29'0 0.0 21.5
2018-Jun-14 13:30S 29°29' W 102°29'0 0.0 21.5
2018-Jun-14 13:15S 29°29' W 102°29'0 0.0 21.4
2018-Jun-14 12:30S 29°29' W 102°29'0 0.0 21.4
2018-Jun-14 12:15S 29°29' W 102°29'1 1.0 21.4
2018-Jun-14 11:45S 29°29' W 102°30'0 0.0 21.4
2018-Jun-14 11:30S 29°29' W 102°30'1 0.3 21.4
2018-Jun-14 10:00S 29°29' W 102°31'2 8.4 21.4
2018-Jun-14 09:45S 29°29' W 102°33'0 0.0 21.4
2018-Jun-14 05:45S 29°29' W 102°33'1 0.7 21.4
2018-Jun-14 05:00S 29°29' W 102°34'0 0.0 21.4
2018-Jun-14 04:45S 29°29' W 102°34'0 0.0 21.4
2018-Jun-14 04:30S 29°29' W 102°34'0 0.0 21.4
2018-Jun-14 04:15S 29°29' W 102°34'0 0.0 21.4
2018-Jun-14 04:00S 29°29' W 102°34'0 0.0 21.4
2018-Jun-14 03:15S 29°29' W 102°34'1 3.2 21.4
2018-Jun-14 03:00S 29°29' W 102°34'0 0.0 21.4
2018-Jun-14 02:45S 29°29' W 102°34'0 0.0 21.4
2018-Jun-14 02:15S 29°29' W 102°34'1 2.1 21.4
2018-Jun-14 01:45S 29°29' W 102°35'0 0.0 21.4
2018-Jun-14 01:15S 29°29' W 102°35'0 0.0 21.4
2018-Jun-14 00:45S 29°29' W 102°35'1 2.4 21.4
2018-Jun-14 00:30S 29°28' W 102°35'1 3.2 21.4
2018-Jun-14 00:15S 29°28' W 102°36'1 3.2 21.4
2018-Jun-14 00:00S 29°28' W 102°35'1 0.6 21.4
2018-Jun-13 22:45S 29°28' W 102°36'0 0.0 21.4
2018-Jun-13 22:30S 29°28' W 102°36'3 0.6 21.4
2018-Jun-13 17:30S 29°26' W 102°38'0 0.0 21.4
2018-Jun-13 16:00S 29°26' W 102°38'0 0.0 21.4
2018-Jun-13 15:45S 29°26' W 102°38'0 0.0 21.4
2018-Jun-13 14:45S 29°26' W 102°38'1 2.1 21.4
2018-Jun-13 14:30S 29°26' W 102°38'0 0.0 21.4
2018-Jun-13 14:15S 29°26' W 102°38'0 0.0 21.4
2018-Jun-13 14:00S 29°26' W 102°38'0 0.0 21.4
2018-Jun-13 13:45S 29°26' W 102°38'1 0.7 21.4
2018-Jun-13 13:00S 29°26' W 102°38'1 3.2 21.4
2018-Jun-13 12:45S 29°25' W 102°39'0 0.0 21.4
2018-Jun-13 12:15S 29°25' W 102°39'0 0.0 21.4
2018-Jun-13 11:45S 29°25' W 102°39'0 0.0 21.4
2018-Jun-13 10:15S 29°25' W 102°39'2 6.3 21.3
2018-Jun-13 10:00S 29°25' W 102°41'0 0.0 21.3
2018-Jun-13 06:15S 29°25' W 102°41'0 0.0 21.3
2018-Jun-13 06:00S 29°25' W 102°41'0 0.0 21.3
2018-Jun-13 05:15S 29°25' W 102°41'1 2.1 21.3
2018-Jun-13 05:00S 29°25' W 102°41'0 0.0 21.3
2018-Jun-13 04:30S 29°25' W 102°41'0 0.0 21.3
2018-Jun-13 03:30S 29°25' W 102°41'1 3.2 21.3
2018-Jun-13 03:15S 29°25' W 102°42'0 0.0 21.3
2018-Jun-13 02:45S 29°25' W 102°42'0 0.0 21.3
2018-Jun-13 02:30S 29°25' W 102°42'1 0.7 21.3
2018-Jun-13 01:00S 29°25' W 102°43'0 0.0 21.4
2018-Jun-13 00:45S 29°25' W 102°43'1 2.4 21.4
2018-Jun-13 00:30S 29°24' W 102°43'0 0.0 21.4
2018-Jun-13 00:15S 29°24' W 102°43'1 0.4 21.4
2018-Jun-12 23:00S 29°24' W 102°44'0 0.0 21.4
2018-Jun-12 22:45S 29°24' W 102°44'3 0.5 21.4
2018-Jun-12 16:45S 29°22' W 102°46'1 1.2 21.3
2018-Jun-12 16:15S 29°22' W 102°46'0 0.0 21.3
2018-Jun-12 16:00S 29°22' W 102°46'1 1.1 21.3
2018-Jun-12 15:15S 29°22' W 102°46'1 2.1 21.2
2018-Jun-12 15:00S 29°22' W 102°46'0 0.0 21.2
2018-Jun-12 14:45S 29°22' W 102°46'0 0.0 21.2
2018-Jun-12 14:30S 29°22' W 102°46'0 0.0 21.2
2018-Jun-12 14:15S 29°22' W 102°46'1 1.1 21.2
2018-Jun-12 13:30S 29°22' W 102°46'0 0.0 21.2
2018-Jun-12 13:15S 29°22' W 102°46'1 3.2 21.2
2018-Jun-12 13:00S 29°22' W 102°46'0 0.0 21.3
2018-Jun-12 12:45S 29°22' W 102°46'0 0.0 21.3
2018-Jun-12 12:30S 29°22' W 102°46'1 1.1 21.3
2018-Jun-12 11:45S 29°22' W 102°46'1 0.6 21.2
2018-Jun-12 10:30S 29°22' W 102°47'2 6.3 21.2
2018-Jun-12 10:15S 29°22' W 102°49'0 0.0 21.2
2018-Jun-12 08:45S 29°22' W 102°49'1 0.2 21.3
2018-Jun-12 05:30S 29°21' W 102°49'0 0.0 21.3
2018-Jun-12 05:00S 29°21' W 102°49'0 0.0 21.3
2018-Jun-12 04:45S 29°21' W 102°49'1 0.7 21.3
2018-Jun-12 04:00S 29°21' W 102°49'1 2.1 21.3
2018-Jun-12 03:45S 29°21' W 102°50'0 0.0 21.3
2018-Jun-12 03:15S 29°21' W 102°50'1 3.2 21.3
2018-Jun-12 03:00S 29°20' W 102°50'0 0.0 21.3
2018-Jun-12 01:30S 29°20' W 102°50'1 3.2 21.3
2018-Jun-12 01:15S 29°20' W 102°50'0 0.0 21.3
2018-Jun-12 01:00S 29°20' W 102°50'1 3.2 21.3
2018-Jun-12 00:45S 29°19' W 102°50'0 0.0 21.3
2018-Jun-12 00:30S 29°19' W 102°50'   21.3
Track history (hours):
 
Tides and Currents Weather Stations Pressure Air Temp Water Temp Dewpoint Dewpoint Depression Visibility Wind Speed Wind Dir Waves Ship Positions

Drifting buoy 32822

Last reported at 2018-Jun-22 00:30 UTC. Time now 2018-Jun-22 01:38 UTC.
Position S 28°59' W 102°24'.

Water temperature 20.8 ° C

Date/timePositionNaut miles runAvg speedWind from/ knotsBaromVisibWave heightAir tempDewpointWater temp
2018-Jun-22 00:30S 28°59' W 102°24'0 0.0 20.8
2018-Jun-22 00:15S 28°59' W 102°24'0 0.0 20.8
2018-Jun-21 23:15S 28°59' W 102°24'0 0.0 20.8
2018-Jun-21 22:45S 28°59' W 102°24'0 0.0 20.8
2018-Jun-21 22:30S 28°59' W 102°24'1 0.1 20.8
2018-Jun-21 17:00S 28°59' W 102°23'1 1.0 20.9
2018-Jun-21 16:30S 28°59' W 102°23'1 3.2 20.9
2018-Jun-21 16:15S 29°00' W 102°22'0 0.0 20.9
2018-Jun-21 14:45S 29°00' W 102°22'0 0.0 20.9
2018-Jun-21 14:30S 29°00' W 102°22'1 2.1 20.9
2018-Jun-21 14:00S 29°00' W 102°23'0 0.0 20.9
2018-Jun-21 13:45S 29°00' W 102°23'1 0.7 20.9
2018-Jun-21 13:00S 29°00' W 102°23'0 0.0 20.9
2018-Jun-21 12:45S 29°00' W 102°23'0 0.0 20.9
2018-Jun-21 12:15S 29°00' W 102°23'2 7.2 20.9
2018-Jun-21 12:00S 28°58' W 102°23'0 0.0 20.9
2018-Jun-21 11:45S 28°58' W 102°23'2 1.2 20.9
2018-Jun-21 10:15S 29°00' W 102°23'3 1.8 20.9
2018-Jun-21 08:30S 29°02' W 102°20'0 0.0 20.9
2018-Jun-21 05:45S 29°02' W 102°20'0 0.0 20.9
2018-Jun-21 05:15S 29°02' W 102°20'0 0.0 20.8
2018-Jun-21 05:00S 29°02' W 102°20'1 0.7 20.8
2018-Jun-21 04:15S 29°02' W 102°21'1 2.1 20.8
2018-Jun-21 04:00S 29°02' W 102°22'1 2.1 20.8
2018-Jun-21 03:30S 29°02' W 102°20'0 0.0 20.8
2018-Jun-21 03:15S 29°02' W 102°20'0 0.0 20.8
2018-Jun-21 03:00S 29°02' W 102°20'1 2.4 20.8
2018-Jun-21 02:45S 29°03' W 102°20'0 0.0 20.8
2018-Jun-21 02:30S 29°03' W 102°20'0 0.0 20.8
2018-Jun-21 01:30S 29°03' W 102°20'0 0.0 20.8
2018-Jun-21 01:00S 29°03' W 102°20'1 4.2 20.8
2018-Jun-21 00:45S 29°03' W 102°19'0 0.0 20.8
2018-Jun-21 00:30S 29°03' W 102°19'1 1.0 20.8
2018-Jun-21 00:00S 29°03' W 102°20'1 2.4 20.9
2018-Jun-20 23:45S 29°04' W 102°20'0 0.0 20.9
2018-Jun-20 23:00S 29°04' W 102°20'2 8.3 20.9
2018-Jun-20 22:45S 29°05' W 102°19'0 0.0 20.9
2018-Jun-20 17:30S 29°05' W 102°19'0 0.0 21.0
2018-Jun-20 17:15S 29°05' W 102°19'1 1.0 21.0
2018-Jun-20 16:45S 29°05' W 102°18'0 0.0 21.0
2018-Jun-20 16:30S 29°05' W 102°18'1 0.7 20.9
2018-Jun-20 15:45S 29°05' W 102°17'0 0.0 20.9
2018-Jun-20 15:00S 29°05' W 102°17'0 0.0 20.9
2018-Jun-20 14:45S 29°05' W 102°17'1 2.1 20.9
2018-Jun-20 14:30S 29°05' W 102°17'0 0.0 20.9
2018-Jun-20 14:15S 29°05' W 102°17'0 0.0 20.9
2018-Jun-20 14:00S 29°05' W 102°17'1 0.8 20.9
2018-Jun-20 13:00S 29°06' W 102°17'0 0.0 20.9
2018-Jun-20 12:45S 29°06' W 102°17'0 0.0 20.9
2018-Jun-20 12:30S 29°06' W 102°17'2 4.8 20.9
2018-Jun-20 12:00S 29°08' W 102°16'0 0.0 20.9
2018-Jun-20 10:30S 29°08' W 102°16'0 0.0 20.8
2018-Jun-20 10:15S 29°08' W 102°16'0 0.0 20.8
2018-Jun-20 08:45S 29°08' W 102°16'0 0.0 20.8
2018-Jun-20 06:00S 29°08' W 102°16'0 0.0 20.8
2018-Jun-20 05:30S 29°08' W 102°16'0 0.0 20.8
2018-Jun-20 05:15S 29°08' W 102°16'1 0.8 20.8
2018-Jun-20 04:30S 29°08' W 102°16'1 2.1 20.8
2018-Jun-20 04:15S 29°08' W 102°15'1 1.2 20.8
2018-Jun-20 03:45S 29°08' W 102°15'1 3.2 20.8
2018-Jun-20 03:30S 29°08' W 102°16'0 0.0 20.8
2018-Jun-20 03:15S 29°08' W 102°16'1 4.2 20.8
2018-Jun-20 03:00S 29°08' W 102°14'0 0.0 20.8
2018-Jun-20 02:45S 29°08' W 102°14'0 0.0 20.8
2018-Jun-20 02:00S 29°08' W 102°14'1 2.1 20.8
2018-Jun-20 01:45S 29°08' W 102°15'0 0.0 20.8
2018-Jun-20 01:30S 29°08' W 102°15'0 0.0 20.8
2018-Jun-20 01:15S 29°08' W 102°15'4 8.8 20.8
2018-Jun-20 00:45S 29°11' W 102°11'0 0.0 20.8
2018-Jun-20 00:30S 29°11' W 102°11'0 0.0 20.8
2018-Jun-20 00:15S 29°11' W 102°11'0 0.0 20.8
2018-Jun-19 23:15S 29°11' W 102°11'0 0.0 20.8
2018-Jun-19 23:00S 29°11' W 102°11'0 0.0 20.8
2018-Jun-19 22:45S 29°11' W 102°11'0 0.0 20.8
2018-Jun-19 21:30S 29°11' W 102°11'0 0.0 20.9
2018-Jun-19 17:00S 29°11' W 102°11'1 0.8 21.1
2018-Jun-19 16:15S 29°11' W 102°11'0 0.0 21.1
2018-Jun-19 16:00S 29°11' W 102°11'1 1.6 21.1
2018-Jun-19 15:30S 29°12' W 102°10'1 2.1 21.1
2018-Jun-19 15:15S 29°12' W 102°11'0 0.0 21.1
2018-Jun-19 15:00S 29°12' W 102°11'1 4.8 21.1
2018-Jun-19 14:45S 29°13' W 102°10'1 0.3 21.1
2018-Jun-19 13:15S 29°13' W 102°10'2 7.2 21.1
2018-Jun-19 13:00S 29°14' W 102°10'1 0.7 21.1
2018-Jun-19 11:30S 29°14' W 102°09'0 0.0 21.2
2018-Jun-19 10:45S 29°14' W 102°09'0 0.0 21.2
2018-Jun-19 10:30S 29°14' W 102°09'0 0.0 21.2
2018-Jun-19 09:00S 29°14' W 102°09'1 0.4 21.2
2018-Jun-19 05:45S 29°16' W 102°09'1 0.5 21.2
2018-Jun-19 04:45S 29°16' W 102°08'0 0.0 21.2
2018-Jun-19 04:15S 29°16' W 102°08'0 0.0 21.3
2018-Jun-19 04:00S 29°16' W 102°08'1 3.2 21.3
2018-Jun-19 03:45S 29°16' W 102°08'1 4.8 21.3
2018-Jun-19 03:30S 29°17' W 102°07'1 4.2 21.3
2018-Jun-19 03:15S 29°17' W 102°08'1 2.4 21.3
2018-Jun-19 03:00S 29°16' W 102°08'1 1.2 21.3
2018-Jun-19 02:00S 29°17' W 102°07'0 0.0 21.2
2018-Jun-19 01:45S 29°17' W 102°07'0 0.0 21.3
2018-Jun-19 01:00S 29°17' W 102°07'0 0.0 21.3
2018-Jun-19 00:45S 29°17' W 102°07'6 3.7 21.3
2018-Jun-18 23:15S 29°22' W 102°05'416.9 21.3
2018-Jun-18 23:00S 29°18' W 102°05'4 3.4 21.3
2018-Jun-18 21:45S 29°22' W 102°05'0 0.0 21.3
2018-Jun-18 21:30S 29°22' W 102°05'1 0.1 21.3
2018-Jun-18 17:30S 29°23' W 102°05'0 0.0 21.3
2018-Jun-18 17:15S 29°23' W 102°05'0 0.0 21.3
2018-Jun-18 15:45S 29°23' W 102°05'1 2.4 21.3
2018-Jun-18 15:30S 29°23' W 102°05'0 0.0 21.3
2018-Jun-18 15:15S 29°23' W 102°05'0 0.0 21.3
2018-Jun-18 15:00S 29°23' W 102°05'1 2.1 21.3
2018-Jun-18 14:45S 29°23' W 102°04'1 0.6 21.3
2018-Jun-18 13:45S 29°24' W 102°04'0 0.0 21.3
2018-Jun-18 13:30S 29°24' W 102°04'0 0.0 21.3
2018-Jun-18 13:15S 29°24' W 102°04'1 0.8 21.3
2018-Jun-18 11:45S 29°25' W 102°04'1 0.8 21.3
2018-Jun-18 11:00S 29°26' W 102°04'0 0.0 21.3
2018-Jun-18 10:45S 29°26' W 102°04'3 0.6 21.3
2018-Jun-18 06:00S 29°28' W 102°06'0 0.0 21.3
2018-Jun-18 05:15S 29°28' W 102°06'1 2.1 21.3
2018-Jun-18 05:00S 29°28' W 102°05'1 1.0 21.3
2018-Jun-18 04:30S 29°28' W 102°06'0 0.0 21.3
2018-Jun-18 04:15S 29°28' W 102°06'1 1.0 21.3
2018-Jun-18 03:45S 29°28' W 102°07'1 2.1 21.3
2018-Jun-18 03:30S 29°28' W 102°06'0 0.0 21.3
2018-Jun-18 03:15S 29°28' W 102°06'0 0.0 21.3
2018-Jun-18 02:15S 29°28' W 102°06'0 0.0 21.3
2018-Jun-18 02:00S 29°28' W 102°06'1 1.0 21.3
2018-Jun-18 01:30S 29°28' W 102°07'0 0.0 21.3
2018-Jun-18 01:15S 29°28' W 102°07'1 1.6 21.3
2018-Jun-18 00:45S 29°29' W 102°06'0 0.0 21.3
2018-Jun-18 00:30S 29°29' W 102°06'1 1.1 21.3
2018-Jun-17 23:45S 29°28' W 102°05'0 0.0 21.3
2018-Jun-17 23:30S 29°28' W 102°05'0 0.0 21.3
2018-Jun-17 21:45S 29°28' W 102°05'2 0.5 21.3
2018-Jun-17 16:45S 29°31' W 102°05'1 1.0 21.2
2018-Jun-17 16:15S 29°31' W 102°05'0 0.0 21.2
2018-Jun-17 16:00S 29°31' W 102°05'1 1.6 21.3
2018-Jun-17 15:30S 29°31' W 102°05'0 0.0 21.2
2018-Jun-17 15:15S 29°31' W 102°05'0 0.0 21.2
2018-Jun-17 15:00S 29°31' W 102°05'1 1.6 21.2
2018-Jun-17 14:15S 29°32' W 102°05'1 2.4 21.2
2018-Jun-17 14:00S 29°32' W 102°05'1 2.4 21.2
2018-Jun-17 13:45S 29°32' W 102°05'0 0.0 21.2
2018-Jun-17 13:30S 29°32' W 102°05'1 0.6 21.2
2018-Jun-17 12:30S 29°33' W 102°05'1 4.8 21.2
2018-Jun-17 12:15S 29°34' W 102°06'0 0.0 21.3
2018-Jun-17 11:15S 29°34' W 102°06'0 0.0 21.4
2018-Jun-17 11:00S 29°34' W 102°06'2 1.4 21.4
2018-Jun-17 09:30S 29°34' W 102°08'0 0.0 21.4
2018-Jun-17 09:15S 29°34' W 102°08'0 0.0 21.4
2018-Jun-17 05:30S 29°34' W 102°08'0 0.0 21.2
2018-Jun-17 05:00S 29°34' W 102°08'0 0.0 21.2
2018-Jun-17 04:45S 29°34' W 102°08'0 0.0 21.2
2018-Jun-17 04:00S 29°34' W 102°08'0 0.0 21.2
2018-Jun-17 03:45S 29°34' W 102°08'0 0.0 21.2
2018-Jun-17 03:15S 29°34' W 102°08'1 2.4 21.2
2018-Jun-17 03:00S 29°33' W 102°08'0 0.0 21.3
2018-Jun-17 02:45S 29°33' W 102°08'1 3.2 21.3
2018-Jun-17 02:30S 29°34' W 102°09'1 3.2 21.3
2018-Jun-17 02:15S 29°33' W 102°10'0 0.0 21.3
2018-Jun-17 02:00S 29°33' W 102°10'0 0.0 21.3
2018-Jun-17 01:45S 29°33' W 102°10'1 0.8 21.3
2018-Jun-17 01:00S 29°34' W 102°10'1 2.1 21.3
2018-Jun-17 00:45S 29°34' W 102°09'1 1.0 21.3
2018-Jun-17 00:15S 29°34' W 102°10'0 0.0 21.4
2018-Jun-17 00:00S 29°34' W 102°10'0 0.0 21.4
2018-Jun-16 23:45S 29°34' W 102°10'0 0.0 21.3
2018-Jun-16 23:30S 29°34' W 102°10'1 0.6 21.4
2018-Jun-16 22:30S 29°34' W 102°10'0 0.0 21.4
2018-Jun-16 22:00S 29°34' W 102°10'2 0.4 21.4
2018-Jun-16 17:15S 29°35' W 102°11'0 0.0 21.4
2018-Jun-16 17:00S 29°35' W 102°11'0 0.0 21.4
2018-Jun-16 16:30S 29°35' W 102°11'0 0.0 21.4
2018-Jun-16 16:15S 29°35' W 102°11'1 0.7 21.4
2018-Jun-16 14:45S 29°35' W 102°13'1 1.0 21.5
2018-Jun-16 14:15S 29°35' W 102°12'1 2.1 21.4
2018-Jun-16 14:00S 29°35' W 102°13'0 0.0 21.5
2018-Jun-16 13:45S 29°35' W 102°13'1 1.0 21.5
2018-Jun-16 13:15S 29°35' W 102°13'0 0.0 21.5
2018-Jun-16 13:00S 29°35' W 102°13'0 0.0 21.5
2018-Jun-16 12:45S 29°35' W 102°13'0 0.0 21.5
2018-Jun-16 12:30S 29°35' W 102°13'0 0.0 21.5
2018-Jun-16 11:30S 29°35' W 102°13'1 2.1 21.5
2018-Jun-16 11:15S 29°35' W 102°14'0 0.0 21.5
2018-Jun-16 11:00S 29°35' W 102°14'1 0.4 21.5
2018-Jun-16 09:45S 29°35' W 102°14'0 0.0 21.5
2018-Jun-16 09:30S 29°35' W 102°14'1 0.3 21.5
2018-Jun-16 05:45S 29°35' W 102°16'0 0.0 21.5
2018-Jun-16 05:15S 29°35' W 102°16'0 0.0 21.5
2018-Jun-16 05:00S 29°35' W 102°16'1 0.7 21.5
2018-Jun-16 04:15S 29°35' W 102°16'0 0.0 21.5
2018-Jun-16 04:00S 29°35' W 102°16'0 0.0 21.5
2018-Jun-16 03:30S 29°35' W 102°16'1 1.0 21.5
2018-Jun-16 03:00S 29°35' W 102°17'1 1.0 21.5
2018-Jun-16 02:30S 29°35' W 102°17'0 0.0 21.5
2018-Jun-16 01:30S 29°35' W 102°17'0 0.0 21.5
2018-Jun-16 01:15S 29°35' W 102°17'0 0.0 21.6
2018-Jun-16 00:45S 29°35' W 102°17'1 0.7 21.6
2018-Jun-16 00:00S 29°35' W 102°18'0 0.0 21.6
2018-Jun-15 23:45S 29°35' W 102°18'0 0.0 21.6
2018-Jun-15 23:15S 29°35' W 102°18'0 0.0 21.6
2018-Jun-15 23:00S 29°35' W 102°18'1 1.1 21.6
2018-Jun-15 22:15S 29°34' W 102°19'1 2.4 21.6
2018-Jun-15 22:00S 29°35' W 102°19'2 0.5 21.6
2018-Jun-15 17:30S 29°34' W 102°21'0 0.0 21.6
2018-Jun-15 16:45S 29°34' W 102°21'1 0.8 21.6
2018-Jun-15 15:45S 29°33' W 102°22'1 1.0 21.6
2018-Jun-15 15:15S 29°33' W 102°21'0 0.0 21.6
2018-Jun-15 15:00S 29°33' W 102°21'1 2.1 21.6
2018-Jun-15 14:45S 29°33' W 102°22'0 0.0 21.6
2018-Jun-15 14:15S 29°33' W 102°22'0 0.0 21.6
2018-Jun-15 14:00S 29°33' W 102°22'0 0.0 21.6
2018-Jun-15 13:45S 29°33' W 102°22'0 0.0 21.6
2018-Jun-15 13:30S 29°33' W 102°22'0 0.0 21.6
2018-Jun-15 13:00S 29°33' W 102°22'1 0.8 21.6
2018-Jun-15 12:00S 29°32' W 102°22'0 0.0 21.6
2018-Jun-15 11:45S 29°32' W 102°22'0 0.0 21.6
2018-Jun-15 11:30S 29°32' W 102°22'0 0.0 21.6
2018-Jun-15 11:15S 29°32' W 102°22'1 0.3 21.6
2018-Jun-15 09:45S 29°32' W 102°23'1 0.3 21.6
2018-Jun-15 06:15S 29°32' W 102°24'0 0.0 21.6
2018-Jun-15 06:00S 29°32' W 102°24'0 0.0 21.6
2018-Jun-15 05:30S 29°32' W 102°24'0 0.0 21.6
2018-Jun-15 04:30S 29°32' W 102°24'1 2.1 21.6
2018-Jun-15 04:15S 29°32' W 102°25'0 0.0 21.6
2018-Jun-15 04:00S 29°32' W 102°25'0 0.0 21.6
2018-Jun-15 03:45S 29°32' W 102°25'1 2.1 21.6
2018-Jun-15 03:30S 29°32' W 102°25'0 0.0 21.6
2018-Jun-15 02:45S 29°32' W 102°25'1 2.1 21.6
2018-Jun-15 02:30S 29°32' W 102°26'0 0.0 21.6
2018-Jun-15 02:00S 29°32' W 102°26'0 0.0 21.6
2018-Jun-15 01:45S 29°32' W 102°26'1 1.2 21.6
2018-Jun-15 01:15S 29°32' W 102°26'1 0.5 21.6
2018-Jun-15 00:15S 29°32' W 102°26'0 0.0 21.6
2018-Jun-15 00:00S 29°32' W 102°26'1 2.4 21.6
2018-Jun-14 23:45S 29°31' W 102°26'0 0.0 21.6
2018-Jun-14 23:30S 29°31' W 102°26'3 3.2 21.6
2018-Jun-14 22:30S 29°29' W 102°29'311.0 21.6
2018-Jun-14 22:15S 29°31' W 102°27'3 0.6 21.7
2018-Jun-14 17:15S 29°29' W 102°29'0 0.0 21.6
2018-Jun-14 17:00S 29°29' W 102°29'1 0.8 21.6
2018-Jun-14 16:15S 29°30' W 102°29'1 2.4 21.6
2018-Jun-14 16:00S 29°29' W 102°29'0 0.0 21.6
2018-Jun-14 15:45S 29°29' W 102°29'0 0.0 21.6
2018-Jun-14 15:30S 29°29' W 102°29'0 0.0 21.6
2018-Jun-14 15:15S 29°29' W 102°29'0 0.0 21.6
2018-Jun-14 14:15S 29°29' W 102°29'0 0.0 21.5
2018-Jun-14 14:00S 29°29' W 102°29'0 0.0 21.5
2018-Jun-14 13:30S 29°29' W 102°29'0 0.0 21.5
2018-Jun-14 13:15S 29°29' W 102°29'0 0.0 21.4
2018-Jun-14 12:30S 29°29' W 102°29'0 0.0 21.4
2018-Jun-14 12:15S 29°29' W 102°29'1 1.0 21.4
2018-Jun-14 11:45S 29°29' W 102°30'0 0.0 21.4
2018-Jun-14 11:30S 29°29' W 102°30'1 0.3 21.4
2018-Jun-14 10:00S 29°29' W 102°31'2 8.4 21.4
2018-Jun-14 09:45S 29°29' W 102°33'0 0.0 21.4
2018-Jun-14 05:45S 29°29' W 102°33'1 0.7 21.4
2018-Jun-14 05:00S 29°29' W 102°34'0 0.0 21.4
2018-Jun-14 04:45S 29°29' W 102°34'0 0.0 21.4
2018-Jun-14 04:30S 29°29' W 102°34'0 0.0 21.4
2018-Jun-14 04:15S 29°29' W 102°34'0 0.0 21.4
2018-Jun-14 04:00S 29°29' W 102°34'0 0.0 21.4
2018-Jun-14 03:15S 29°29' W 102°34'1 3.2 21.4
2018-Jun-14 03:00S 29°29' W 102°34'0 0.0 21.4
2018-Jun-14 02:45S 29°29' W 102°34'0 0.0 21.4
2018-Jun-14 02:15S 29°29' W 102°34'1 2.1 21.4
2018-Jun-14 01:45S 29°29' W 102°35'0 0.0 21.4
2018-Jun-14 01:15S 29°29' W 102°35'0 0.0 21.4
2018-Jun-14 00:45S 29°29' W 102°35'1 2.4 21.4
2018-Jun-14 00:30S 29°28' W 102°35'1 3.2 21.4
2018-Jun-14 00:15S 29°28' W 102°36'1 3.2 21.4
2018-Jun-14 00:00S 29°28' W 102°35'1 0.6 21.4
2018-Jun-13 22:45S 29°28' W 102°36'0 0.0 21.4
2018-Jun-13 22:30S 29°28' W 102°36'3 0.6 21.4
2018-Jun-13 17:30S 29°26' W 102°38'0 0.0 21.4
2018-Jun-13 16:00S 29°26' W 102°38'0 0.0 21.4
2018-Jun-13 15:45S 29°26' W 102°38'0 0.0 21.4
2018-Jun-13 14:45S 29°26' W 102°38'1 2.1 21.4
2018-Jun-13 14:30S 29°26' W 102°38'0 0.0 21.4
2018-Jun-13 14:15S 29°26' W 102°38'0 0.0 21.4
2018-Jun-13 14:00S 29°26' W 102°38'0 0.0 21.4
2018-Jun-13 13:45S 29°26' W 102°38'1 0.7 21.4
2018-Jun-13 13:00S 29°26' W 102°38'1 3.2 21.4
2018-Jun-13 12:45S 29°25' W 102°39'0 0.0 21.4
2018-Jun-13 12:15S 29°25' W 102°39'0 0.0 21.4
2018-Jun-13 11:45S 29°25' W 102°39'0 0.0 21.4
2018-Jun-13 10:15S 29°25' W 102°39'2 6.3 21.3
2018-Jun-13 10:00S 29°25' W 102°41'0 0.0 21.3
2018-Jun-13 06:15S 29°25' W 102°41'0 0.0 21.3
2018-Jun-13 06:00S 29°25' W 102°41'0 0.0 21.3
2018-Jun-13 05:15S 29°25' W 102°41'1 2.1 21.3
2018-Jun-13 05:00S 29°25' W 102°41'0 0.0 21.3
2018-Jun-13 04:30S 29°25' W 102°41'0 0.0 21.3
2018-Jun-13 03:30S 29°25' W 102°41'1 3.2 21.3
2018-Jun-13 03:15S 29°25' W 102°42'0 0.0 21.3
2018-Jun-13 02:45S 29°25' W 102°42'0 0.0 21.3
2018-Jun-13 02:30S 29°25' W 102°42'1 0.7 21.3
2018-Jun-13 01:00S 29°25' W 102°43'0 0.0 21.4
2018-Jun-13 00:45S 29°25' W 102°43'1 2.4 21.4
2018-Jun-13 00:30S 29°24' W 102°43'0 0.0 21.4
2018-Jun-13 00:15S 29°24' W 102°43'1 0.4 21.4
2018-Jun-12 23:00S 29°24' W 102°44'0 0.0 21.4
2018-Jun-12 22:45S 29°24' W 102°44'3 0.5 21.4
2018-Jun-12 16:45S 29°22' W 102°46'1 1.2 21.3
2018-Jun-12 16:15S 29°22' W 102°46'0 0.0 21.3
2018-Jun-12 16:00S 29°22' W 102°46'1 1.1 21.3
2018-Jun-12 15:15S 29°22' W 102°46'1 2.1 21.2
2018-Jun-12 15:00S 29°22' W 102°46'0 0.0 21.2
2018-Jun-12 14:45S 29°22' W 102°46'0 0.0 21.2
2018-Jun-12 14:30S 29°22' W 102°46'0 0.0 21.2
2018-Jun-12 14:15S 29°22' W 102°46'1 1.1 21.2
2018-Jun-12 13:30S 29°22' W 102°46'0 0.0 21.2
2018-Jun-12 13:15S 29°22' W 102°46'1 3.2 21.2
2018-Jun-12 13:00S 29°22' W 102°46'0 0.0 21.3
2018-Jun-12 12:45S 29°22' W 102°46'0 0.0 21.3
2018-Jun-12 12:30S 29°22' W 102°46'1 1.1 21.3
2018-Jun-12 11:45S 29°22' W 102°46'1 0.6 21.2
2018-Jun-12 10:30S 29°22' W 102°47'2 6.3 21.2
2018-Jun-12 10:15S 29°22' W 102°49'0 0.0 21.2
2018-Jun-12 08:45S 29°22' W 102°49'1 0.2 21.3
2018-Jun-12 05:30S 29°21' W 102°49'0 0.0 21.3
2018-Jun-12 05:00S 29°21' W 102°49'0 0.0 21.3
2018-Jun-12 04:45S 29°21' W 102°49'1 0.7 21.3
2018-Jun-12 04:00S 29°21' W 102°49'1 2.1 21.3
2018-Jun-12 03:45S 29°21' W 102°50'0 0.0 21.3
2018-Jun-12 03:15S 29°21' W 102°50'1 3.2 21.3
2018-Jun-12 03:00S 29°20' W 102°50'0 0.0 21.3
2018-Jun-12 01:30S 29°20' W 102°50'1 3.2 21.3
2018-Jun-12 01:15S 29°20' W 102°50'0 0.0 21.3
2018-Jun-12 01:00S 29°20' W 102°50'1 3.2 21.3
2018-Jun-12 00:45S 29°19' W 102°50'0 0.0 21.3
2018-Jun-12 00:30S 29°19' W 102°50'   21.3

Dump ship's entire track history